createdAt,value
2022-11-06T00:01:56.202Z,6.10
2022-11-06T00:04:25.853Z,5.30
2022-11-06T00:06:52.790Z,4.82
2022-11-06T00:09:23.685Z,5.93
2022-11-06T00:11:56.484Z,6.30
2022-11-06T00:14:26.167Z,5.40
2022-11-06T00:16:55.781Z,5.57
2022-11-06T00:19:25.342Z,5.65
2022-11-06T00:21:54.912Z,5.40
2022-11-06T00:24:24.541Z,5.70
2022-11-06T00:26:56.865Z,5.60
2022-11-06T00:29:26.593Z,5.90
2022-11-06T00:31:56.132Z,6.60
2022-11-06T00:34:25.700Z,5.50
2022-11-06T00:36:55.354Z,6.30
2022-11-06T00:39:24.879Z,5.53
2022-11-06T00:41:57.005Z,5.73
2022-11-06T00:44:26.634Z,5.65
2022-11-06T00:46:56.204Z,6.15
2022-11-06T00:49:25.797Z,5.00
2022-11-06T00:51:55.326Z,5.03
2022-11-06T00:54:24.862Z,5.90
2022-11-06T00:56:57.026Z,5.60
2022-11-06T00:59:26.624Z,5.57
2022-11-06T01:01:56.259Z,5.05
2022-11-06T01:04:27.030Z,5.00
2022-11-06T01:06:58.480Z,5.60
2022-11-06T01:09:29.800Z,5.82
2022-11-06T01:12:18.176Z,6.20
2022-11-06T01:14:47.870Z,5.97
2022-11-06T01:17:17.560Z,6.07
2022-11-06T01:19:47.161Z,5.50
2022-11-06T01:22:16.713Z,5.75
2022-11-06T01:24:46.555Z,5.40
2022-11-06T01:27:27.357Z,5.30
2022-11-06T01:29:57.599Z,5.43
2022-11-06T01:32:27.336Z,5.05
2022-11-06T01:34:56.937Z,5.60
2022-11-06T01:37:26.533Z,4.30
2022-11-06T01:39:56.054Z,5.05
2022-11-06T01:42:28.206Z,5.20
2022-11-06T01:45:29.342Z,4.90
2022-11-06T01:47:59.051Z,4.30
2022-11-06T01:50:28.782Z,4.90
2022-11-06T01:53:00.800Z,4.50
2022-11-06T01:55:33.577Z,4.93
2022-11-06T01:58:07.876Z,4.90
2022-11-06T02:00:37.444Z,4.70
2022-11-06T02:03:07.225Z,5.03
2022-11-06T02:05:37.004Z,5.15
2022-11-06T02:08:07.038Z,5.05
2022-11-06T02:10:36.838Z,5.27
2022-11-06T02:13:24.314Z,4.80
2022-11-06T02:16:00.478Z,4.70
2022-11-06T02:18:51.593Z,4.73
2022-11-06T02:21:50.684Z,4.87
2022-11-06T02:24:33.422Z,4.25
2022-11-06T02:27:12.915Z,4.40
2022-11-06T02:29:50.136Z,4.55
2022-11-06T02:32:23.150Z,4.28
2022-11-06T02:34:54.814Z,4.57
2022-11-06T02:37:29.654Z,4.65
2022-11-06T02:40:02.285Z,4.25
2022-11-06T02:42:35.162Z,4.55
2022-11-06T02:45:05.255Z,4.53
2022-11-06T02:47:35.597Z,4.33
2022-11-06T02:50:08.083Z,4.63
2022-11-06T02:52:40.523Z,4.28
2022-11-06T02:55:13.769Z,4.32
2022-11-06T02:57:48.235Z,4.20
2022-11-06T03:00:19.422Z,4.40
2022-11-06T03:02:53.019Z,4.10
2022-11-06T03:05:26.159Z,4.40
2022-11-06T03:07:59.767Z,4.30
2022-11-06T03:10:33.935Z,4.50
2022-11-06T03:13:12.533Z,4.40
2022-11-06T03:15:45.067Z,4.18
2022-11-06T03:18:16.726Z,4.13
2022-11-06T03:20:51.003Z,3.92
2022-11-06T03:23:23.687Z,4.43
2022-11-06T03:25:57.021Z,4.10
2022-11-06T03:28:33.564Z,4.60
2022-11-06T03:31:06.082Z,4.50
2022-11-06T03:33:38.652Z,4.40
2022-11-06T03:36:11.978Z,5.07
2022-11-06T03:38:44.318Z,3.95
2022-11-06T03:41:16.786Z,4.23
2022-11-06T03:43:50.936Z,3.90
2022-11-06T03:46:25.101Z,3.92
2022-11-06T03:48:57.023Z,4.15
2022-11-06T03:51:29.718Z,4.10
2022-11-06T03:54:02.012Z,4.00
2022-11-06T03:56:35.700Z,3.63
2022-11-06T03:59:09.369Z,3.95
2022-11-06T04:01:44.559Z,3.60
2022-11-06T04:04:17.376Z,3.45
2022-11-06T04:06:50.090Z,3.65
2022-11-06T04:09:33.510Z,3.88
2022-11-06T04:12:17.579Z,3.50
2022-11-06T04:14:52.920Z,3.70
2022-11-06T04:17:23.272Z,3.92
2022-11-06T04:19:56.212Z,4.05
2022-11-06T04:22:37.360Z,4.22
2022-11-06T04:25:24.126Z,3.70
2022-11-06T04:28:02.792Z,3.22
2022-11-06T04:30:38.491Z,3.58
2022-11-06T04:33:10.790Z,3.50
2022-11-06T04:35:50.591Z,3.70
2022-11-06T04:38:28.294Z,3.63
2022-11-06T04:41:05.436Z,3.38
2022-11-06T04:43:42.235Z,3.20
2022-11-06T04:46:16.949Z,3.17
2022-11-06T04:48:47.530Z,3.20
2022-11-06T04:51:17.972Z,3.00
2022-11-06T04:53:47.651Z,3.25
2022-11-06T04:56:25.793Z,3.42
2022-11-06T04:58:55.628Z,3.20
2022-11-06T05:01:28.225Z,3.67
2022-11-06T05:03:58.070Z,3.30
2022-11-06T05:06:30.222Z,3.22
2022-11-06T05:09:01.233Z,2.90
2022-11-06T05:11:30.847Z,3.08
2022-11-06T05:14:00.437Z,2.60
2022-11-06T05:16:32.604Z,2.80
2022-11-06T05:19:02.170Z,3.35
2022-11-06T05:21:44.201Z,3.50
2022-11-06T05:24:13.909Z,2.50
2022-11-06T05:26:43.483Z,3.00
2022-11-06T05:29:14.308Z,2.90
2022-11-06T05:31:46.435Z,3.03
2022-11-06T05:34:16.018Z,3.22
2022-11-06T05:36:45.690Z,3.50
2022-11-06T05:39:15.258Z,3.20
2022-11-06T05:41:44.820Z,3.00
2022-11-06T05:44:14.779Z,3.33
2022-11-06T05:46:49.214Z,2.70
2022-11-06T05:49:19.975Z,2.70
2022-11-06T05:51:49.705Z,3.03
2022-11-06T05:54:19.274Z,3.30
2022-11-06T05:56:48.898Z,3.20
2022-11-06T05:59:18.460Z,3.00
2022-11-06T06:01:50.703Z,2.90
2022-11-06T06:04:20.360Z,3.00
2022-11-06T06:06:49.892Z,2.92
2022-11-06T06:09:19.460Z,3.40
2022-11-06T06:11:49.163Z,3.20
2022-11-06T06:14:18.731Z,3.50
2022-11-06T06:16:50.894Z,3.30
2022-11-06T06:19:20.491Z,3.00
2022-11-06T06:21:50.032Z,3.10
2022-11-06T06:24:19.879Z,3.13
2022-11-06T06:26:49.750Z,2.90
2022-11-06T06:29:19.473Z,2.80
2022-11-06T06:31:51.917Z,3.00
2022-11-06T06:34:21.855Z,2.65
2022-11-06T06:36:52.928Z,2.80
2022-11-06T06:39:23.361Z,3.22
2022-11-06T06:41:53.066Z,3.15
2022-11-06T06:44:22.667Z,2.63
2022-11-06T06:46:54.789Z,2.92
2022-11-06T06:49:24.385Z,2.90
2022-11-06T06:51:54.158Z,2.80
2022-11-06T06:54:23.728Z,2.58
2022-11-06T06:56:53.366Z,2.47
2022-11-06T06:59:22.928Z,2.50
2022-11-06T07:01:55.193Z,2.70
2022-11-06T07:04:24.852Z,3.03
2022-11-06T07:06:56.188Z,2.97
2022-11-06T07:09:26.547Z,3.00
2022-11-06T07:11:56.099Z,2.92
2022-11-06T07:14:25.644Z,2.90
2022-11-06T07:16:57.814Z,2.75
2022-11-06T07:19:27.582Z,2.60
2022-11-06T07:21:57.111Z,2.50
2022-11-06T07:24:26.678Z,3.20
2022-11-06T07:26:56.488Z,2.83
2022-11-06T07:29:26.242Z,3.50
2022-11-06T07:31:58.410Z,3.10
2022-11-06T07:34:28.041Z,2.63
2022-11-06T07:36:57.654Z,2.70
2022-11-06T07:39:27.330Z,2.60
2022-11-06T07:41:58.115Z,2.80
2022-11-06T07:44:35.856Z,3.38
2022-11-06T07:47:08.087Z,2.40
2022-11-06T07:49:37.698Z,2.90
2022-11-06T07:52:07.926Z,3.00
2022-11-06T07:54:37.719Z,2.70
2022-11-06T07:57:07.270Z,2.40
2022-11-06T07:59:36.823Z,2.42
2022-11-06T08:02:09.102Z,2.43
2022-11-06T08:04:38.745Z,3.00
2022-11-06T08:07:08.569Z,3.30
2022-11-06T08:09:38.406Z,2.65
2022-11-06T08:12:08.602Z,2.70
2022-11-06T08:14:41.457Z,2.80
2022-11-06T08:17:13.830Z,2.65
2022-11-06T08:19:43.371Z,2.72
2022-11-06T08:22:12.868Z,2.67
2022-11-06T08:24:42.474Z,3.13
2022-11-06T08:27:12.216Z,3.20
2022-11-06T08:29:41.957Z,2.50
2022-11-06T08:32:14.176Z,2.60
2022-11-06T08:34:43.809Z,3.20
2022-11-06T08:37:13.500Z,2.60
2022-11-06T08:39:44.417Z,3.00
2022-11-06T08:42:14.042Z,2.75
2022-11-06T08:44:44.039Z,3.70
2022-11-06T08:47:16.158Z,3.00
2022-11-06T08:49:45.890Z,3.00
2022-11-06T08:52:15.464Z,3.05
2022-11-06T08:54:45.038Z,3.03
2022-11-06T08:57:15.683Z,3.10
2022-11-06T08:59:45.286Z,3.00
2022-11-06T09:02:17.909Z,2.65
2022-11-06T09:04:48.273Z,2.80
2022-11-06T09:07:19.712Z,3.10
2022-11-06T09:09:49.598Z,3.05
2022-11-06T09:12:19.163Z,2.85
2022-11-06T09:14:48.717Z,2.90
2022-11-06T09:17:23.704Z,2.55
2022-11-06T09:19:53.325Z,3.20
2022-11-06T09:22:23.033Z,2.70
2022-11-06T09:25:07.708Z,2.70
2022-11-06T09:27:44.394Z,2.70
2022-11-06T09:30:15.977Z,2.80
2022-11-06T09:32:51.944Z,2.50
2022-11-06T09:35:22.397Z,2.92
2022-11-06T09:37:52.070Z,2.75
2022-11-06T09:40:24.044Z,2.40
2022-11-06T09:43:02.520Z,2.65
2022-11-06T09:45:34.187Z,2.60
2022-11-06T09:48:16.655Z,3.00
2022-11-06T09:50:51.279Z,2.80
2022-11-06T09:53:23.246Z,2.60
2022-11-06T09:55:53.141Z,2.40
2022-11-06T09:58:25.235Z,2.90
2022-11-06T10:00:55.994Z,2.70
2022-11-06T10:03:33.380Z,2.63
2022-11-06T10:06:02.993Z,2.55
2022-11-06T10:08:34.069Z,3.00
2022-11-06T10:11:21.960Z,2.40
2022-11-06T10:13:59.012Z,2.60
2022-11-06T10:16:35.372Z,3.17
2022-11-06T10:19:13.732Z,2.85
2022-11-06T10:21:50.204Z,2.47
2022-11-06T10:24:28.545Z,2.67
2022-11-06T10:26:59.503Z,2.50
2022-11-06T10:29:42.859Z,2.43
2022-11-06T10:32:26.042Z,2.40
2022-11-06T10:35:02.063Z,2.60
2022-11-06T10:37:33.644Z,2.70
2022-11-06T10:40:07.172Z,2.65
2022-11-06T10:42:39.850Z,2.70
2022-11-06T10:45:15.472Z,2.60
2022-11-06T10:47:48.308Z,3.15
2022-11-06T10:50:20.992Z,2.28
2022-11-06T10:52:55.067Z,3.22
2022-11-06T10:55:48.632Z,2.30
2022-11-06T10:58:21.131Z,2.20
2022-11-06T11:00:52.522Z,2.40
2022-11-06T11:03:26.544Z,2.70
2022-11-06T11:05:58.701Z,3.22
2022-11-06T11:08:36.049Z,2.03
2022-11-06T11:11:06.570Z,2.72
2022-11-06T11:13:36.453Z,2.80
2022-11-06T11:16:06.593Z,2.65
2022-11-06T11:18:36.128Z,2.50
2022-11-06T11:21:23.476Z,2.75
2022-11-06T11:24:08.857Z,3.00
2022-11-06T11:26:41.431Z,2.50
2022-11-06T11:29:20.420Z,3.30
2022-11-06T11:31:53.265Z,1.98
2022-11-06T11:34:24.845Z,2.40
2022-11-06T11:37:00.189Z,2.70
2022-11-06T11:39:33.377Z,2.30
2022-11-06T11:42:29.338Z,2.42
2022-11-06T11:45:20.793Z,2.60
2022-11-06T11:47:52.037Z,2.10
2022-11-06T11:50:28.773Z,2.35
2022-11-06T11:53:09.687Z,2.50
2022-11-06T11:55:46.034Z,2.50
2022-11-06T11:58:22.487Z,2.50
2022-11-06T12:00:58.131Z,2.50
2022-11-06T12:03:30.123Z,3.10
2022-11-06T12:06:09.361Z,2.45
2022-11-06T12:08:42.768Z,2.50
2022-11-06T12:11:16.068Z,2.67
2022-11-06T12:13:45.707Z,2.63
2022-11-06T12:16:18.316Z,2.50
2022-11-06T12:18:53.472Z,2.30
2022-11-06T12:21:29.009Z,2.63
2022-11-06T12:24:06.212Z,2.60
2022-11-06T12:26:38.385Z,2.20
2022-11-06T12:29:12.883Z,2.40
2022-11-06T12:31:45.674Z,2.65
2022-11-06T12:34:19.682Z,2.60
2022-11-06T12:37:02.089Z,2.40
2022-11-06T12:39:36.574Z,2.10
2022-11-06T12:42:07.321Z,2.40
2022-11-06T12:44:36.920Z,2.70
2022-11-06T12:47:10.716Z,2.20
2022-11-06T12:50:10.805Z,2.50
2022-11-06T12:52:51.898Z,2.40
2022-11-06T12:55:27.526Z,2.40
2022-11-06T12:58:14.415Z,3.10
2022-11-06T13:00:53.657Z,2.38
2022-11-06T13:03:50.166Z,2.78
2022-11-06T13:06:25.915Z,2.53
2022-11-06T13:08:59.145Z,2.65
2022-11-06T13:11:36.966Z,2.20
2022-11-06T13:14:14.761Z,2.47
2022-11-06T13:16:48.109Z,2.25
2022-11-06T13:19:24.313Z,2.63
2022-11-06T13:22:23.360Z,2.20
2022-11-06T13:24:58.047Z,2.53
2022-11-06T13:27:34.424Z,2.33
2022-11-06T13:30:07.258Z,1.92
2022-11-06T13:32:37.932Z,2.50
2022-11-06T13:35:16.816Z,2.22
2022-11-06T13:37:48.868Z,2.38
2022-11-06T13:40:23.995Z,2.40
2022-11-06T13:43:00.990Z,3.10
2022-11-06T13:45:31.292Z,2.95
2022-11-06T13:48:09.698Z,3.30
2022-11-06T13:50:44.715Z,2.20
2022-11-06T13:53:20.485Z,2.10
2022-11-06T13:56:00.083Z,2.00
2022-11-06T13:59:15.652Z,2.35
2022-11-06T14:01:55.316Z,1.80
2022-11-06T14:04:57.294Z,2.00
2022-11-06T14:07:29.832Z,3.13
2022-11-06T14:09:59.519Z,2.40
2022-11-06T14:12:29.179Z,2.22
2022-11-06T14:15:17.944Z,2.05
2022-11-06T14:17:57.426Z,1.60
2022-11-06T14:20:32.590Z,2.30
2022-11-06T14:23:32.211Z,2.30
2022-11-06T14:26:03.310Z,2.10
2022-11-06T14:28:37.085Z,2.10
2022-11-06T14:31:12.672Z,2.73
2022-11-06T14:34:02.425Z,2.80
2022-11-06T14:36:37.465Z,3.50
2022-11-06T14:39:12.886Z,2.22
2022-11-06T14:42:00.157Z,2.83
2022-11-06T14:44:49.243Z,1.92
2022-11-06T14:47:42.438Z,1.90
2022-11-06T14:50:27.631Z,1.80
2022-11-06T14:52:59.267Z,2.00
2022-11-06T14:55:31.570Z,1.80
2022-11-06T14:58:04.039Z,2.15
2022-11-06T15:00:39.745Z,2.17
2022-11-06T15:03:22.282Z,2.00
2022-11-06T15:05:52.854Z,1.90
2022-11-06T15:09:07.229Z,2.03
2022-11-06T15:12:00.699Z,2.40
2022-11-06T15:15:01.068Z,2.00
2022-11-06T15:17:40.966Z,2.47
2022-11-06T15:20:33.991Z,2.10
2022-11-06T15:23:13.420Z,2.40
2022-11-06T15:25:50.305Z,2.40
2022-11-06T15:28:23.829Z,2.35
2022-11-06T15:30:55.695Z,2.25
2022-11-06T15:33:29.920Z,2.30
2022-11-06T15:36:06.442Z,2.53
2022-11-06T15:38:41.388Z,2.45
2022-11-06T15:41:15.322Z,2.22
2022-11-06T15:43:47.055Z,2.30
2022-11-06T15:46:21.460Z,2.20
2022-11-06T15:48:52.106Z,3.97
2022-11-06T15:51:29.304Z,3.53
2022-11-06T15:53:58.848Z,2.40
2022-11-06T15:56:32.419Z,2.33
2022-11-06T15:59:11.496Z,2.35
2022-11-06T16:01:41.712Z,2.72
2022-11-06T16:04:17.667Z,2.50
2022-11-06T16:06:50.356Z,3.10
2022-11-06T16:09:22.066Z,2.60
2022-11-06T16:11:53.570Z,2.90
2022-11-06T16:14:23.576Z,3.00
2022-11-06T16:16:54.570Z,2.70
2022-11-06T16:19:31.711Z,3.28
2022-11-06T16:22:07.607Z,2.70
2022-11-06T16:24:43.348Z,2.92
2022-11-06T16:27:13.532Z,2.70
2022-11-06T16:29:48.943Z,3.20
2022-11-06T16:32:20.332Z,2.70
2022-11-06T16:34:51.735Z,3.03
2022-11-06T16:37:42.460Z,3.00
2022-11-06T16:40:49.865Z,2.40
2022-11-06T16:43:21.637Z,2.90
2022-11-06T16:45:56.040Z,3.00
2022-11-06T16:48:44.963Z,2.70
2022-11-06T16:51:16.005Z,2.85
2022-11-06T16:53:56.284Z,2.78
2022-11-06T16:56:28.066Z,3.20
2022-11-06T16:59:01.154Z,2.80
2022-11-06T17:01:32.185Z,3.20
2022-11-06T17:04:03.596Z,2.70
2022-11-06T17:06:34.454Z,3.03
2022-11-06T17:09:10.192Z,2.80
2022-11-06T17:11:40.281Z,3.40
2022-11-06T17:14:21.225Z,3.05
2022-11-06T17:16:52.560Z,3.25
2022-11-06T17:19:23.345Z,2.58
2022-11-06T17:21:53.076Z,3.05
2022-11-06T17:24:41.493Z,2.85
2022-11-06T17:27:11.103Z,3.10
2022-11-06T17:29:40.687Z,3.22
2022-11-06T17:32:10.347Z,2.85
2022-11-06T17:34:40.011Z,3.30
2022-11-06T17:37:09.814Z,3.00
2022-11-06T17:39:42.079Z,3.03
2022-11-06T17:42:11.662Z,3.20
2022-11-06T17:44:41.205Z,2.90
2022-11-06T17:47:11.134Z,3.00
2022-11-06T17:49:40.753Z,3.60
2022-11-06T17:52:10.334Z,3.30
2022-11-06T17:54:42.518Z,3.38
2022-11-06T17:57:12.058Z,3.40
2022-11-06T17:59:41.841Z,2.85
2022-11-06T18:02:14.520Z,2.80
2022-11-06T18:04:44.428Z,3.20
2022-11-06T18:07:13.942Z,3.10
2022-11-06T18:09:46.120Z,3.17
2022-11-06T18:12:17.545Z,3.03
2022-11-06T18:14:47.119Z,3.08
2022-11-06T18:17:16.788Z,3.30
2022-11-06T18:19:46.429Z,3.43
2022-11-06T18:22:16.162Z,3.13
2022-11-06T18:24:48.359Z,3.30
2022-11-06T18:27:17.923Z,3.22
2022-11-06T18:29:47.451Z,3.30
2022-11-06T18:32:17.362Z,3.08
2022-11-06T18:34:46.931Z,3.50
2022-11-06T18:37:16.483Z,3.20
2022-11-06T18:39:48.662Z,3.22
2022-11-06T18:42:18.256Z,3.42
2022-11-06T18:44:47.799Z,3.60
2022-11-06T18:47:17.565Z,3.10
2022-11-06T18:49:47.202Z,3.30
2022-11-06T18:52:32.450Z,3.40
2022-11-06T18:55:09.863Z,3.45
2022-11-06T18:57:39.448Z,3.25
2022-11-06T19:00:13.228Z,3.70
2022-11-06T19:02:43.111Z,4.13
2022-11-06T19:05:12.954Z,3.60
2022-11-06T19:07:45.186Z,3.47
2022-11-06T19:10:21.683Z,3.70
2022-11-06T19:12:51.255Z,3.78
2022-11-06T19:15:21.946Z,3.70
2022-11-06T19:17:55.294Z,3.70
2022-11-06T19:20:25.070Z,3.42
2022-11-06T19:22:55.304Z,3.30
2022-11-06T19:25:27.534Z,3.28
2022-11-06T19:27:57.968Z,3.72
2022-11-06T19:30:27.715Z,3.30
2022-11-06T19:32:57.307Z,3.70
2022-11-06T19:35:26.889Z,3.25
2022-11-06T19:37:56.460Z,3.60
2022-11-06T19:40:28.869Z,3.35
2022-11-06T19:43:00.351Z,4.10
2022-11-06T19:45:29.961Z,3.55
2022-11-06T19:48:02.388Z,3.22
2022-11-06T19:50:58.043Z,3.40
2022-11-06T19:53:22.478Z,3.60
2022-11-06T19:55:56.029Z,3.92
2022-11-06T19:58:25.959Z,3.72
2022-11-06T20:00:55.555Z,3.28
2022-11-06T20:03:25.125Z,3.92
2022-11-06T20:05:55.629Z,3.40
2022-11-06T20:08:25.198Z,3.17
2022-11-06T20:10:57.327Z,3.90
2022-11-06T20:13:26.932Z,3.90
2022-11-06T20:15:59.617Z,3.80
2022-11-06T20:18:29.220Z,4.13
2022-11-06T20:21:02.394Z,3.90
2022-11-06T20:23:32.252Z,4.35
2022-11-06T20:26:04.704Z,3.60
2022-11-06T20:28:34.564Z,3.63
2022-11-06T20:31:08.119Z,3.92
2022-11-06T20:33:38.664Z,3.50
2022-11-06T20:36:12.281Z,3.70
2022-11-06T20:38:42.406Z,4.00
2022-11-06T20:41:14.967Z,3.90
2022-11-06T20:43:45.818Z,3.90
2022-11-06T20:46:17.338Z,3.10
2022-11-06T20:48:47.654Z,3.40
2022-11-06T20:51:19.590Z,3.70
2022-11-06T20:53:49.419Z,3.00
2022-11-06T20:56:25.116Z,3.50
2022-11-06T20:58:56.757Z,3.58
2022-11-06T21:01:27.896Z,3.45
2022-11-06T21:03:58.862Z,3.10
2022-11-06T21:06:30.358Z,3.70
2022-11-06T21:08:59.942Z,3.90
2022-11-06T21:11:32.115Z,3.75
2022-11-06T21:14:01.708Z,3.50
2022-11-06T21:16:33.872Z,3.13
2022-11-06T21:19:03.844Z,3.85
2022-11-06T21:21:37.108Z,3.20
2022-11-06T21:24:07.608Z,3.30
2022-11-06T21:26:40.806Z,4.00
2022-11-06T21:29:12.878Z,3.17
2022-11-06T21:31:48.628Z,3.50
2022-11-06T21:34:19.568Z,3.55
2022-11-06T21:36:49.766Z,3.40
2022-11-06T21:39:20.920Z,2.92
2022-11-06T21:41:53.070Z,3.15
2022-11-06T21:44:22.587Z,3.00
2022-11-06T21:46:52.143Z,3.10
2022-11-06T21:49:21.870Z,3.13
2022-11-06T21:51:51.621Z,3.22
2022-11-06T21:54:33.655Z,3.10
2022-11-06T21:57:05.801Z,2.97
2022-11-06T21:59:40.487Z,2.55
2022-11-06T22:02:12.147Z,2.85
2022-11-06T22:04:41.793Z,3.00
2022-11-06T22:07:11.600Z,3.03
2022-11-06T22:09:41.216Z,3.17
2022-11-06T22:12:13.413Z,2.80
2022-11-06T22:14:42.984Z,2.50
2022-11-06T22:17:12.496Z,2.80
2022-11-06T22:19:42.488Z,3.17
2022-11-06T22:22:12.277Z,2.90
2022-11-06T22:24:41.861Z,3.10
2022-11-06T22:27:14.067Z,2.78
2022-11-06T22:29:43.616Z,2.58
2022-11-06T22:32:13.239Z,2.90
2022-11-06T22:34:42.804Z,2.78
2022-11-06T22:37:12.367Z,2.75
2022-11-06T22:39:41.971Z,2.60
2022-11-06T22:42:14.095Z,2.60
2022-11-06T22:44:44.271Z,3.00
2022-11-06T22:47:14.122Z,2.65
2022-11-06T22:49:43.852Z,2.78
2022-11-06T22:52:13.505Z,2.60
2022-11-06T22:54:43.007Z,2.40
2022-11-06T22:57:15.196Z,2.72
2022-11-06T22:59:44.755Z,2.70
2022-11-06T23:02:14.403Z,2.90
2022-11-06T23:04:44.289Z,2.70
2022-11-06T23:07:13.877Z,2.35
2022-11-06T23:09:43.505Z,2.60
2022-11-06T23:12:18.733Z,2.40
2022-11-06T23:14:48.400Z,3.00
2022-11-06T23:17:17.996Z,2.65
2022-11-06T23:19:47.667Z,2.70
2022-11-06T23:22:29.672Z,2.42
2022-11-06T23:25:00.373Z,2.72
2022-11-06T23:27:32.542Z,2.80
2022-11-06T23:30:02.621Z,2.50
2022-11-06T23:32:34.118Z,2.28
2022-11-06T23:35:04.801Z,2.60
2022-11-06T23:37:34.854Z,2.70
2022-11-06T23:40:04.559Z,2.60
2022-11-06T23:42:36.843Z,2.53
2022-11-06T23:45:19.549Z,2.15
2022-11-06T23:47:50.666Z,2.30
2022-11-06T23:50:20.637Z,2.60
2022-11-06T23:52:50.306Z,2.20
2022-11-06T23:55:19.930Z,2.73
2022-11-06T23:57:52.106Z,2.60
